sensor_id;sensor_type;location;lat;lon;timestamp;P1;durP1;ratioP1;P2;durP2;ratioP2
58966;SDS011;44744;51.894;5.080;2024-02-23T00:01:12;7.70;;;2.50;;
58966;SDS011;44744;51.894;5.080;2024-02-23T00:06:12;9.40;;;1.70;;
58966;SDS011;44744;51.894;5.080;2024-02-23T00:11:14;9.80;;;2.20;;
58966;SDS011;44744;51.894;5.080;2024-02-23T00:16:18;9.30;;;2.20;;
58966;SDS011;44744;51.894;5.080;2024-02-23T00:21:19;8.50;;;2.00;;
58966;SDS011;44744;51.894;5.080;2024-02-23T00:26:19;4.60;;;1.70;;
58966;SDS011;44744;51.894;5.080;2024-02-23T00:31:20;4.20;;;1.40;;
58966;SDS011;44744;51.894;5.080;2024-02-23T00:36:20;12.90;;;2.90;;
58966;SDS011;44744;51.894;5.080;2024-02-23T00:41:21;6.70;;;1.60;;
58966;SDS011;44744;51.894;5.080;2024-02-23T00:46:21;6.30;;;2.30;;
58966;SDS011;44744;51.894;5.080;2024-02-23T00:51:22;6.40;;;2.00;;
58966;SDS011;44744;51.894;5.080;2024-02-23T00:56:22;3.70;;;1.90;;
58966;SDS011;44744;51.894;5.080;2024-02-23T01:01:23;7.70;;;2.30;;
58966;SDS011;44744;51.894;5.080;2024-02-23T01:06:23;9.70;;;2.40;;
58966;SDS011;44744;51.894;5.080;2024-02-23T01:11:25;5.70;;;1.70;;
58966;SDS011;44744;51.894;5.080;2024-02-23T01:16:25;7.30;;;2.00;;
58966;SDS011;44744;51.894;5.080;2024-02-23T01:21:25;6.80;;;2.10;;
58966;SDS011;44744;51.894;5.080;2024-02-23T01:26:26;6.40;;;1.90;;
58966;SDS011;44744;51.894;5.080;2024-02-23T01:31:27;7.80;;;2.40;;
58966;SDS011;44744;51.894;5.080;2024-02-23T01:36:28;9.60;;;1.50;;
58966;SDS011;44744;51.894;5.080;2024-02-23T01:41:28;7.90;;;1.80;;
58966;SDS011;44744;51.894;5.080;2024-02-23T01:46:28;6.10;;;1.90;;
58966;SDS011;44744;51.894;5.080;2024-02-23T01:51:29;7.70;;;1.80;;
58966;SDS011;44744;51.894;5.080;2024-02-23T01:56:32;7.60;;;2.30;;
58966;SDS011;44744;51.894;5.080;2024-02-23T02:01:33;9.00;;;1.90;;
58966;SDS011;44744;51.894;5.080;2024-02-23T02:06:34;8.70;;;1.80;;
58966;SDS011;44744;51.894;5.080;2024-02-23T02:11:35;8.50;;;2.00;;
58966;SDS011;44744;51.894;5.080;2024-02-23T02:16:45;9.50;;;2.10;;
58966;SDS011;44744;51.894;5.080;2024-02-23T02:21:46;9.50;;;2.40;;
58966;SDS011;44744;51.894;5.080;2024-02-23T02:26:46;7.90;;;2.40;;
58966;SDS011;44744;51.894;5.080;2024-02-23T02:31:50;8.10;;;2.30;;
58966;SDS011;44744;51.894;5.080;2024-02-23T02:36:50;11.40;;;1.90;;
58966;SDS011;44744;51.894;5.080;2024-02-23T02:41:51;10.00;;;2.20;;
58966;SDS011;44744;51.894;5.080;2024-02-23T02:46:52;6.90;;;2.00;;
58966;SDS011;44744;51.894;5.080;2024-02-23T02:51:52;8.70;;;1.90;;
58966;SDS011;44744;51.894;5.080;2024-02-23T02:56:52;6.30;;;1.90;;
58966;SDS011;44744;51.894;5.080;2024-02-23T03:01:54;7.80;;;2.10;;
58966;SDS011;44744;51.894;5.080;2024-02-23T03:06:55;6.90;;;1.80;;
58966;SDS011;44744;51.894;5.080;2024-02-23T03:11:55;6.20;;;1.90;;
58966;SDS011;44744;51.894;5.080;2024-02-23T03:16:56;5.90;;;1.70;;
58966;SDS011;44744;51.894;5.080;2024-02-23T03:21:56;7.00;;;1.70;;
58966;SDS011;44744;51.894;5.080;2024-02-23T03:26:57;4.90;;;1.70;;
58966;SDS011;44744;51.894;5.080;2024-02-23T03:31:57;4.90;;;1.90;;
58966;SDS011;44744;51.894;5.080;2024-02-23T03:36:58;8.30;;;2.00;;
58966;SDS011;44744;51.894;5.080;2024-02-23T03:42:00;9.60;;;2.10;;
58966;SDS011;44744;51.894;5.080;2024-02-23T03:47:00;5.90;;;1.90;;
58966;SDS011;44744;51.894;5.080;2024-02-23T03:52:01;7.90;;;1.80;;
58966;SDS011;44744;51.894;5.080;2024-02-23T03:57:01;10.20;;;2.40;;
58966;SDS011;44744;51.894;5.080;2024-02-23T04:02:02;3.90;;;1.30;;
58966;SDS011;44744;51.894;5.080;2024-02-23T04:07:03;5.20;;;1.90;;
58966;SDS011;44744;51.894;5.080;2024-02-23T04:12:04;5.80;;;1.80;;
58966;SDS011;44744;51.894;5.080;2024-02-23T04:17:07;5.30;;;2.00;;
58966;SDS011;44744;51.894;5.080;2024-02-23T04:22:08;17.10;;;2.30;;
58966;SDS011;44744;51.894;5.080;2024-02-23T04:27:10;6.10;;;1.60;;
58966;SDS011;44744;51.894;5.080;2024-02-23T04:32:10;9.30;;;2.50;;
58966;SDS011;44744;51.894;5.080;2024-02-23T04:37:10;9.60;;;2.00;;
58966;SDS011;44744;51.894;5.080;2024-02-23T04:42:11;7.70;;;2.20;;
58966;SDS011;44744;51.894;5.080;2024-02-23T04:47:11;7.50;;;1.70;;
58966;SDS011;44744;51.894;5.080;2024-02-23T04:52:12;6.10;;;2.10;;
58966;SDS011;44744;51.894;5.080;2024-02-23T04:57:12;8.50;;;2.30;;
58966;SDS011;44744;51.894;5.080;2024-02-23T05:02:13;13.10;;;2.70;;
58966;SDS011;44744;51.894;5.080;2024-02-23T05:07:14;8.50;;;2.30;;
58966;SDS011;44744;51.894;5.080;2024-02-23T05:12:18;5.10;;;2.30;;
58966;SDS011;44744;51.894;5.080;2024-02-23T05:17:18;9.20;;;3.10;;
58966;SDS011;44744;51.894;5.080;2024-02-23T05:22:19;6.10;;;2.40;;
58966;SDS011;44744;51.894;5.080;2024-02-23T05:27:19;8.10;;;2.80;;
58966;SDS011;44744;51.894;5.080;2024-02-23T05:32:20;5.80;;;2.40;;
58966;SDS011;44744;51.894;5.080;2024-02-23T05:37:23;5.50;;;2.40;;
58966;SDS011;44744;51.894;5.080;2024-02-23T05:42:29;7.30;;;2.40;;
58966;SDS011;44744;51.894;5.080;2024-02-23T05:47:30;6.90;;;3.00;;
58966;SDS011;44744;51.894;5.080;2024-02-23T05:52:31;9.70;;;2.40;;
58966;SDS011;44744;51.894;5.080;2024-02-23T05:57:32;4.70;;;2.00;;
58966;SDS011;44744;51.894;5.080;2024-02-23T06:02:33;5.30;;;2.10;;
58966;SDS011;44744;51.894;5.080;2024-02-23T06:07:33;8.60;;;2.40;;
58966;SDS011;44744;51.894;5.080;2024-02-23T06:12:34;5.90;;;2.20;;
58966;SDS011;44744;51.894;5.080;2024-02-23T06:17:35;6.10;;;1.90;;
58966;SDS011;44744;51.894;5.080;2024-02-23T06:22:35;6.70;;;2.50;;
58966;SDS011;44744;51.894;5.080;2024-02-23T06:27:36;7.60;;;2.40;;
58966;SDS011;44744;51.894;5.080;2024-02-23T06:32:36;5.90;;;2.10;;
58966;SDS011;44744;51.894;5.080;2024-02-23T06:37:37;6.30;;;1.80;;
58966;SDS011;44744;51.894;5.080;2024-02-23T06:42:37;4.50;;;1.80;;
58966;SDS011;44744;51.894;5.080;2024-02-23T06:47:38;8.40;;;2.20;;
58966;SDS011;44744;51.894;5.080;2024-02-23T06:52:39;7.30;;;2.30;;
58966;SDS011;44744;51.894;5.080;2024-02-23T06:57:40;7.50;;;2.20;;
58966;SDS011;44744;51.894;5.080;2024-02-23T07:02:43;8.20;;;1.90;;
58966;SDS011;44744;51.894;5.080;2024-02-23T07:07:44;5.70;;;1.60;;
58966;SDS011;44744;51.894;5.080;2024-02-23T07:12:44;7.80;;;2.10;;
58966;SDS011;44744;51.894;5.080;2024-02-23T07:17:45;5.70;;;2.00;;
58966;SDS011;44744;51.894;5.080;2024-02-23T07:22:46;6.00;;;2.00;;
58966;SDS011;44744;51.894;5.080;2024-02-23T07:27:47;8.20;;;2.20;;
58966;SDS011;44744;51.894;5.080;2024-02-23T07:37:50;10.40;;;2.60;;
58966;SDS011;44744;51.894;5.080;2024-02-23T07:42:51;9.70;;;2.10;;
58966;SDS011;44744;51.894;5.080;2024-02-23T07:47:51;4.50;;;2.10;;
58966;SDS011;44744;51.894;5.080;2024-02-23T07:52:52;8.70;;;2.30;;
58966;SDS011;44744;51.894;5.080;2024-02-23T07:57:52;6.80;;;2.10;;
58966;SDS011;44744;51.894;5.080;2024-02-23T08:02:53;8.70;;;2.70;;
58966;SDS011;44744;51.894;5.080;2024-02-23T08:12:57;6.40;;;2.20;;
58966;SDS011;44744;51.894;5.080;2024-02-23T08:17:57;9.10;;;2.60;;
58966;SDS011;44744;51.894;5.080;2024-02-23T08:22:57;5.90;;;2.60;;
58966;SDS011;44744;51.894;5.080;2024-02-23T08:57:56;11.20;;;2.10;;
58966;SDS011;44744;51.894;5.080;2024-02-23T09:02:56;6.10;;;2.00;;
58966;SDS011;44744;51.894;5.080;2024-02-23T09:07:56;9.90;;;2.20;;
58966;SDS011;44744;51.894;5.080;2024-02-23T09:12:57;8.10;;;2.10;;
58966;SDS011;44744;51.894;5.080;2024-02-23T09:17:59;8.60;;;1.90;;
58966;SDS011;44744;51.894;5.080;2024-02-23T09:22:59;8.00;;;2.50;;
58966;SDS011;44744;51.894;5.080;2024-02-23T09:28:00;7.00;;;2.00;;
58966;SDS011;44744;51.894;5.080;2024-02-23T09:33:03;6.30;;;1.90;;
58966;SDS011;44744;51.894;5.080;2024-02-23T09:38:03;5.00;;;1.80;;
58966;SDS011;44744;51.894;5.080;2024-02-23T09:43:04;6.30;;;2.00;;
58966;SDS011;44744;51.894;5.080;2024-02-23T09:53:10;6.80;;;2.00;;
58966;SDS011;44744;51.894;5.080;2024-02-23T09:58:13;4.10;;;1.70;;
58966;SDS011;44744;51.894;5.080;2024-02-23T10:03:17;6.30;;;1.90;;
58966;SDS011;44744;51.894;5.080;2024-02-23T10:08:17;8.80;;;2.20;;
58966;SDS011;44744;51.894;5.080;2024-02-23T10:13:21;5.70;;;2.00;;
58966;SDS011;44744;51.894;5.080;2024-02-23T10:18:26;7.80;;;2.00;;
58966;SDS011;44744;51.894;5.080;2024-02-23T10:23:26;8.10;;;2.60;;
58966;SDS011;44744;51.894;5.080;2024-02-23T10:28:27;5.10;;;1.80;;
58966;SDS011;44744;51.894;5.080;2024-02-23T10:33:27;5.30;;;1.70;;
58966;SDS011;44744;51.894;5.080;2024-02-23T10:38:32;4.80;;;1.80;;
58966;SDS011;44744;51.894;5.080;2024-02-23T10:43:33;5.60;;;2.10;;
58966;SDS011;44744;51.894;5.080;2024-02-23T10:48:52;7.90;;;2.20;;
58966;SDS011;44744;51.894;5.080;2024-02-23T10:53:55;7.50;;;2.20;;
58966;SDS011;44744;51.894;5.080;2024-02-23T10:58:57;7.40;;;2.20;;
58966;SDS011;44744;51.894;5.080;2024-02-23T11:03:59;5.00;;;2.00;;
58966;SDS011;44744;51.894;5.080;2024-02-23T11:09:06;5.30;;;1.90;;
58966;SDS011;44744;51.894;5.080;2024-02-23T11:14:08;4.50;;;2.20;;
58966;SDS011;44744;51.894;5.080;2024-02-23T11:19:11;5.60;;;1.90;;
58966;SDS011;44744;51.894;5.080;2024-02-23T11:24:15;7.80;;;2.70;;
58966;SDS011;44744;51.894;5.080;2024-02-23T11:29:18;6.70;;;2.00;;
58966;SDS011;44744;51.894;5.080;2024-02-23T11:34:26;7.80;;;2.60;;
58966;SDS011;44744;51.894;5.080;2024-02-23T11:39:30;7.50;;;1.80;;
58966;SDS011;44744;51.894;5.080;2024-02-23T11:49:32;5.40;;;1.60;;
58966;SDS011;44744;51.894;5.080;2024-02-23T11:54:50;4.00;;;1.70;;
58966;SDS011;44744;51.894;5.080;2024-02-23T12:00:04;5.50;;;2.20;;
58966;SDS011;44744;51.894;5.080;2024-02-23T12:05:28;8.30;;;2.00;;
58966;SDS011;44744;51.894;5.080;2024-02-23T12:10:32;5.00;;;1.90;;
58966;SDS011;44744;51.894;5.080;2024-02-23T12:15:37;5.30;;;1.90;;
58966;SDS011;44744;51.894;5.080;2024-02-23T12:20:39;6.20;;;2.10;;
58966;SDS011;44744;51.894;5.080;2024-02-23T12:25:54;4.50;;;1.80;;
58966;SDS011;44744;51.894;5.080;2024-02-23T12:31:02;8.00;;;2.10;;
58966;SDS011;44744;51.894;5.080;2024-02-23T12:36:04;6.30;;;2.00;;
58966;SDS011;44744;51.894;5.080;2024-02-23T12:41:18;4.60;;;1.60;;
58966;SDS011;44744;51.894;5.080;2024-02-23T12:46:19;6.20;;;1.80;;
58966;SDS011;44744;51.894;5.080;2024-02-23T12:51:28;5.10;;;1.80;;
58966;SDS011;44744;51.894;5.080;2024-02-23T12:56:38;4.90;;;1.80;;
58966;SDS011;44744;51.894;5.080;2024-02-23T13:01:44;2.70;;;1.70;;
58966;SDS011;44744;51.894;5.080;2024-02-23T13:06:44;3.90;;;1.50;;
58966;SDS011;44744;51.894;5.080;2024-02-23T13:11:45;7.40;;;2.00;;
58966;SDS011;44744;51.894;5.080;2024-02-23T13:16:47;5.40;;;1.60;;
58966;SDS011;44744;51.894;5.080;2024-02-23T13:21:47;4.80;;;1.50;;
58966;SDS011;44744;51.894;5.080;2024-02-23T13:26:47;5.10;;;1.60;;
58966;SDS011;44744;51.894;5.080;2024-02-23T13:31:48;3.00;;;1.70;;
58966;SDS011;44744;51.894;5.080;2024-02-23T13:36:49;4.20;;;1.70;;
58966;SDS011;44744;51.894;5.080;2024-02-23T13:41:50;5.90;;;1.90;;
58966;SDS011;44744;51.894;5.080;2024-02-23T13:46:50;2.90;;;1.50;;
58966;SDS011;44744;51.894;5.080;2024-02-23T13:51:50;2.70;;;1.20;;
58966;SDS011;44744;51.894;5.080;2024-02-23T13:56:51;2.30;;;1.00;;
58966;SDS011;44744;51.894;5.080;2024-02-23T14:01:51;4.20;;;1.40;;
58966;SDS011;44744;51.894;5.080;2024-02-23T14:06:53;2.00;;;1.00;;
58966;SDS011;44744;51.894;5.080;2024-02-23T14:11:53;4.50;;;1.20;;
58966;SDS011;44744;51.894;5.080;2024-02-23T14:16:54;3.00;;;1.50;;
58966;SDS011;44744;51.894;5.080;2024-02-23T14:21:54;3.00;;;1.10;;
58966;SDS011;44744;51.894;5.080;2024-02-23T14:26:54;1.80;;;1.00;;
58966;SDS011;44744;51.894;5.080;2024-02-23T14:31:55;2.90;;;0.90;;
58966;SDS011;44744;51.894;5.080;2024-02-23T14:36:55;4.00;;;1.10;;
58966;SDS011;44744;51.894;5.080;2024-02-23T14:42:10;2.10;;;1.20;;
58966;SDS011;44744;51.894;5.080;2024-02-23T14:47:10;3.70;;;1.40;;
58966;SDS011;44744;51.894;5.080;2024-02-23T14:52:15;2.30;;;1.40;;
58966;SDS011;44744;51.894;5.080;2024-02-23T14:57:16;3.20;;;1.50;;
58966;SDS011;44744;51.894;5.080;2024-02-23T15:02:20;4.30;;;1.70;;
58966;SDS011;44744;51.894;5.080;2024-02-23T15:07:21;3.50;;;1.50;;
58966;SDS011;44744;51.894;5.080;2024-02-23T15:12:22;4.20;;;1.80;;
58966;SDS011;44744;51.894;5.080;2024-02-23T15:17:24;3.00;;;1.40;;
58966;SDS011;44744;51.894;5.080;2024-02-23T15:22:24;2.60;;;1.30;;
58966;SDS011;44744;51.894;5.080;2024-02-23T15:27:26;4.60;;;1.30;;
58966;SDS011;44744;51.894;5.080;2024-02-23T15:32:26;3.80;;;1.60;;
58966;SDS011;44744;51.894;5.080;2024-02-23T15:37:27;5.20;;;1.40;;
58966;SDS011;44744;51.894;5.080;2024-02-23T15:42:27;3.00;;;1.30;;
58966;SDS011;44744;51.894;5.080;2024-02-23T15:47:28;4.50;;;1.60;;
58966;SDS011;44744;51.894;5.080;2024-02-23T15:52:28;3.30;;;1.40;;
58966;SDS011;44744;51.894;5.080;2024-02-23T15:57:29;10.00;;;1.60;;
58966;SDS011;44744;51.894;5.080;2024-02-23T16:02:29;5.70;;;1.80;;
58966;SDS011;44744;51.894;5.080;2024-02-23T16:07:29;3.20;;;1.50;;
58966;SDS011;44744;51.894;5.080;2024-02-23T16:12:30;3.60;;;1.50;;
58966;SDS011;44744;51.894;5.080;2024-02-23T16:17:31;4.60;;;1.70;;
58966;SDS011;44744;51.894;5.080;2024-02-23T16:22:31;5.70;;;2.00;;
58966;SDS011;44744;51.894;5.080;2024-02-23T16:27:31;8.90;;;2.20;;
58966;SDS011;44744;51.894;5.080;2024-02-23T16:32:32;5.50;;;1.90;;
58966;SDS011;44744;51.894;5.080;2024-02-23T16:37:32;7.90;;;2.20;;
58966;SDS011;44744;51.894;5.080;2024-02-23T16:42:33;6.20;;;2.30;;
58966;SDS011;44744;51.894;5.080;2024-02-23T16:47:33;7.10;;;2.50;;
58966;SDS011;44744;51.894;5.080;2024-02-23T16:52:33;6.20;;;2.40;;
58966;SDS011;44744;51.894;5.080;2024-02-23T16:57:34;6.20;;;2.30;;
58966;SDS011;44744;51.894;5.080;2024-02-23T17:02:35;5.80;;;2.00;;
58966;SDS011;44744;51.894;5.080;2024-02-23T17:07:41;6.70;;;2.30;;
58966;SDS011;44744;51.894;5.080;2024-02-23T17:12:42;2.80;;;1.60;;
58966;SDS011;44744;51.894;5.080;2024-02-23T17:17:49;1.60;;;0.90;;
58966;SDS011;44744;51.894;5.080;2024-02-23T17:22:50;5.70;;;1.10;;
58966;SDS011;44744;51.894;5.080;2024-02-23T17:27:50;3.10;;;1.80;;
58966;SDS011;44744;51.894;5.080;2024-02-23T17:32:52;2.10;;;0.90;;
58966;SDS011;44744;51.894;5.080;2024-02-23T17:37:52;1.90;;;0.90;;
58966;SDS011;44744;51.894;5.080;2024-02-23T17:42:53;2.30;;;1.00;;
58966;SDS011;44744;51.894;5.080;2024-02-23T17:47:53;1.40;;;0.80;;
58966;SDS011;44744;51.894;5.080;2024-02-23T17:52:54;3.40;;;1.60;;
58966;SDS011;44744;51.894;5.080;2024-02-23T17:58:05;2.20;;;1.10;;
58966;SDS011;44744;51.894;5.080;2024-02-23T18:03:22;4.10;;;1.20;;
58966;SDS011;44744;51.894;5.080;2024-02-23T18:08:25;1.90;;;1.00;;
58966;SDS011;44744;51.894;5.080;2024-02-23T18:13:26;4.00;;;1.60;;
58966;SDS011;44744;51.894;5.080;2024-02-23T18:18:26;3.30;;;1.80;;
58966;SDS011;44744;51.894;5.080;2024-02-23T18:23:27;4.80;;;2.60;;
58966;SDS011;44744;51.894;5.080;2024-02-23T18:28:27;4.50;;;2.10;;
58966;SDS011;44744;51.894;5.080;2024-02-23T18:33:31;4.10;;;2.00;;
58966;SDS011;44744;51.894;5.080;2024-02-23T18:38:32;3.00;;;1.90;;
58966;SDS011;44744;51.894;5.080;2024-02-23T18:43:34;4.10;;;2.30;;
58966;SDS011;44744;51.894;5.080;2024-02-23T18:48:39;5.40;;;2.20;;
58966;SDS011;44744;51.894;5.080;2024-02-23T18:53:40;3.40;;;1.40;;
58966;SDS011;44744;51.894;5.080;2024-02-23T18:58:43;3.30;;;1.90;;
58966;SDS011;44744;51.894;5.080;2024-02-23T19:03:44;4.10;;;2.20;;
58966;SDS011;44744;51.894;5.080;2024-02-23T19:08:45;3.70;;;2.20;;
58966;SDS011;44744;51.894;5.080;2024-02-23T19:13:46;3.00;;;2.10;;
58966;SDS011;44744;51.894;5.080;2024-02-23T19:18:48;4.70;;;2.00;;
58966;SDS011;44744;51.894;5.080;2024-02-23T19:23:50;3.70;;;1.90;;
58966;SDS011;44744;51.894;5.080;2024-02-23T19:28:50;5.70;;;2.20;;
58966;SDS011;44744;51.894;5.080;2024-02-23T19:33:51;4.70;;;2.20;;
58966;SDS011;44744;51.894;5.080;2024-02-23T19:38:53;3.10;;;2.40;;
58966;SDS011;44744;51.894;5.080;2024-02-23T19:43:53;4.50;;;2.60;;
58966;SDS011;44744;51.894;5.080;2024-02-23T19:48:54;4.80;;;2.50;;
58966;SDS011;44744;51.894;5.080;2024-02-23T19:54:00;3.80;;;2.50;;
58966;SDS011;44744;51.894;5.080;2024-02-23T19:59:01;4.10;;;2.40;;
58966;SDS011;44744;51.894;5.080;2024-02-23T20:04:02;5.10;;;3.40;;
58966;SDS011;44744;51.894;5.080;2024-02-23T20:09:03;5.30;;;3.10;;
58966;SDS011;44744;51.894;5.080;2024-02-23T20:14:03;5.30;;;2.60;;
58966;SDS011;44744;51.894;5.080;2024-02-23T20:19:04;3.50;;;2.50;;
58966;SDS011;44744;51.894;5.080;2024-02-23T20:24:04;3.90;;;3.00;;
58966;SDS011;44744;51.894;5.080;2024-02-23T20:29:05;4.30;;;2.70;;
58966;SDS011;44744;51.894;5.080;2024-02-23T20:34:07;5.30;;;3.20;;
58966;SDS011;44744;51.894;5.080;2024-02-23T20:39:17;5.00;;;3.40;;
58966;SDS011;44744;51.894;5.080;2024-02-23T20:44:18;5.20;;;3.90;;
58966;SDS011;44744;51.894;5.080;2024-02-23T20:49:21;4.40;;;3.30;;
58966;SDS011;44744;51.894;5.080;2024-02-23T20:54:21;3.10;;;2.40;;
58966;SDS011;44744;51.894;5.080;2024-02-23T20:59:22;5.30;;;2.40;;
58966;SDS011;44744;51.894;5.080;2024-02-23T21:04:24;2.80;;;1.90;;
58966;SDS011;44744;51.894;5.080;2024-02-23T21:09:24;3.90;;;2.30;;
58966;SDS011;44744;51.894;5.080;2024-02-23T21:14:25;3.80;;;2.30;;
58966;SDS011;44744;51.894;5.080;2024-02-23T21:19:26;2.80;;;2.00;;
58966;SDS011;44744;51.894;5.080;2024-02-23T21:24:26;2.70;;;1.80;;
58966;SDS011;44744;51.894;5.080;2024-02-23T21:29:32;3.20;;;2.10;;
58966;SDS011;44744;51.894;5.080;2024-02-23T21:34:34;2.80;;;1.80;;
58966;SDS011;44744;51.894;5.080;2024-02-23T21:39:36;3.00;;;2.20;;
58966;SDS011;44744;51.894;5.080;2024-02-23T21:44:36;2.70;;;2.00;;
58966;SDS011;44744;51.894;5.080;2024-02-23T21:49:37;3.60;;;2.40;;
58966;SDS011;44744;51.894;5.080;2024-02-23T21:54:37;3.60;;;2.20;;
58966;SDS011;44744;51.894;5.080;2024-02-23T21:59:41;4.00;;;2.60;;
58966;SDS011;44744;51.894;5.080;2024-02-23T22:04:55;3.90;;;2.20;;
58966;SDS011;44744;51.894;5.080;2024-02-23T22:10:01;3.60;;;2.30;;
58966;SDS011;44744;51.894;5.080;2024-02-23T22:15:02;3.20;;;2.50;;
58966;SDS011;44744;51.894;5.080;2024-02-23T22:20:06;4.20;;;3.30;;
58966;SDS011;44744;51.894;5.080;2024-02-23T22:25:10;4.50;;;3.40;;
58966;SDS011;44744;51.894;5.080;2024-02-23T22:30:11;4.50;;;3.90;;
58966;SDS011;44744;51.894;5.080;2024-02-23T22:35:14;4.30;;;3.50;;
58966;SDS011;44744;51.894;5.080;2024-02-23T22:40:26;4.90;;;3.50;;
58966;SDS011;44744;51.894;5.080;2024-02-23T22:45:39;4.10;;;3.30;;
58966;SDS011;44744;51.894;5.080;2024-02-23T22:50:47;4.30;;;3.60;;
58966;SDS011;44744;51.894;5.080;2024-02-23T22:55:47;5.70;;;3.50;;
58966;SDS011;44744;51.894;5.080;2024-02-23T23:00:50;6.40;;;4.10;;
58966;SDS011;44744;51.894;5.080;2024-02-23T23:05:56;4.90;;;3.30;;
58966;SDS011;44744;51.894;5.080;2024-02-23T23:10:57;3.90;;;3.10;;
58966;SDS011;44744;51.894;5.080;2024-02-23T23:15:59;4.60;;;3.10;;
58966;SDS011;44744;51.894;5.080;2024-02-23T23:21:00;6.70;;;3.20;;
58966;SDS011;44744;51.894;5.080;2024-02-23T23:26:02;4.40;;;2.50;;
58966;SDS011;44744;51.894;5.080;2024-02-23T23:31:03;6.60;;;2.60;;
58966;SDS011;44744;51.894;5.080;2024-02-23T23:36:04;3.90;;;2.40;;
58966;SDS011;44744;51.894;5.080;2024-02-23T23:41:04;2.90;;;2.00;;
58966;SDS011;44744;51.894;5.080;2024-02-23T23:46:05;3.50;;;2.10;;
58966;SDS011;44744;51.894;5.080;2024-02-23T23:51:05;4.20;;;2.10;;
58966;SDS011;44744;51.894;5.080;2024-02-23T23:56:07;3.80;;;1.70;;
